Time;durP1;ratioP1;P1;durP2;ratioP2;P2;SDS_P1;SDS_P2;PMS_P1;PMS_P2;Temp;Humidity;BMP_temperature;BMP_pressure;BME280_temperature;BME280_humidity;BME280_pressure;Samples;Min_cycle;Max_cycle;Signal;HPM_P1;HPM_P2
2023/05/07 03:29:56;;;;;;;10.80;10.50;;;13.40;99.90;;;;;;1094855;22;20502;-78
2023/05/07 03:32:24;;;;;;;11.00;10.70;;;13.30;99.90;;;;;;5021044;28;20287;-77
2023/05/07 03:34:51;;;;;;;11.10;10.80;;;13.30;99.90;;;;;;5007782;28;20292;-76
2023/05/07 03:37:19;;;;;;;11.00;10.70;;;13.30;99.90;;;;;;5002183;28;20253;-76
2023/05/07 03:39:46;;;;;;;10.93;10.63;;;13.30;99.90;;;;;;5000150;28;20267;-76
2023/05/07 03:42:16;;;;;;;10.77;10.47;;;13.30;99.90;;;;;;4981962;28;20329;-76
2023/05/07 03:44:43;;;;;;;11.00;10.70;;;13.20;99.90;;;;;;4982309;28;20265;-79
2023/05/07 03:47:13;;;;;;;11.00;10.70;;;13.20;99.90;;;;;;4993534;28;20244;-76
2023/05/07 03:49:40;;;;;;;10.90;10.60;;;13.20;99.90;;;;;;4992899;28;20236;-76
2023/05/07 03:52:08;;;;;;;11.00;10.70;;;13.10;99.90;;;;;;5001883;28;20252;-78
2023/05/07 03:54:35;;;;;;;10.87;10.57;;;13.10;99.90;;;;;;5001490;28;20260;-77
2023/05/07 03:57:03;;;;;;;10.90;10.60;;;13.10;99.90;;;;;;5000670;28;20224;-76
2023/05/07 03:59:30;;;;;;;10.90;10.60;;;13.00;99.90;;;;;;5000633;28;20240;-78
2023/05/07 04:01:58;;;;;;;10.93;10.63;;;13.00;99.90;;;;;;5000587;28;20271;-77
2023/05/07 04:04:27;;;;;;;10.70;10.40;;;13.00;99.90;;;;;;5001089;28;20233;-77
2023/05/07 04:06:54;;;;;;;10.90;10.60;;;13.00;99.90;;;;;;5001351;28;20233;-78
2023/05/07 04:09:22;;;;;;;11.03;10.73;;;13.00;99.90;;;;;;5000665;28;20240;-78
2023/05/07 04:11:49;;;;;;;10.63;10.33;;;13.10;99.90;;;;;;5001309;28;20247;-78
2023/05/07 04:14:17;;;;;;;10.73;10.43;;;13.10;99.90;;;;;;5000503;28;20229;-77
2023/05/07 04:16:44;;;;;;;10.70;10.40;;;13.10;99.90;;;;;;4993121;28;20224;-78
2023/05/07 04:19:12;;;;;;;10.57;10.27;;;13.10;99.90;;;;;;5000644;28;20240;-78
2023/05/07 04:21:41;;;;;;;10.50;10.20;;;13.20;99.90;;;;;;5001328;28;20347;-78
2023/05/07 04:24:09;;;;;;;10.60;10.30;;;13.20;99.90;;;;;;5000640;28;20232;-77
2023/05/07 04:26:36;;;;;;;10.57;10.27;;;13.20;99.90;;;;;;5000804;28;20217;-78
2023/05/07 04:29:04;;;;;;;10.67;10.37;;;13.20;99.90;;;;;;5000271;28;20324;-77
2023/05/07 04:31:31;;;;;;;10.60;10.30;;;13.10;99.90;;;;;;5000055;28;20240;-78
2023/05/07 04:33:59;;;;;;;10.60;10.30;;;13.10;99.90;;;;;;5000934;28;20280;-78
2023/05/07 04:36:27;;;;;;;10.60;10.30;;;13.00;99.90;;;;;;5000650;28;20232;-77
2023/05/07 04:38:56;;;;;;;10.80;10.50;;;13.10;99.90;;;;;;5000494;28;20241;-77
2023/05/07 04:41:23;;;;;;;10.43;10.13;;;13.10;99.90;;;;;;5000287;28;20252;-78
2023/05/07 04:43:51;;;;;;;10.53;10.23;;;13.10;99.90;;;;;;5000573;28;20611;-77
2023/05/07 04:46:18;;;;;;;10.53;10.23;;;13.10;99.90;;;;;;5000538;28;20233;-77
2023/05/07 04:48:46;;;;;;;10.40;10.10;;;13.00;99.90;;;;;;5000534;28;20228;-77
2023/05/07 04:51:13;;;;;;;10.40;10.10;;;13.10;99.90;;;;;;4999869;28;20247;-77
2023/05/07 04:53:41;;;;;;;10.80;10.50;;;13.10;99.90;;;;;;5000366;28;20243;-77
2023/05/07 04:56:10;;;;;;;10.50;10.20;;;13.10;99.90;;;;;;5000270;28;20252;-78
2023/05/07 04:58:37;;;;;;;10.50;10.20;;;13.10;99.90;;;;;;4999501;28;20239;-77
2023/05/07 05:01:05;;;;;;;10.83;10.53;;;13.20;99.90;;;;;;4999916;28;20332;-78
2023/05/07 05:03:33;;;;;;;10.57;10.27;;;13.20;99.90;;;;;;4999897;28;20243;-77
2023/05/07 05:06:00;;;;;;;10.23;9.93;;;13.30;99.90;;;;;;4999892;28;20229;-77
2023/05/07 05:08:28;;;;;;;10.40;10.10;;;13.40;99.90;;;;;;4999826;28;20243;-77
2023/05/07 05:10:55;;;;;;;10.60;10.30;;;13.40;99.90;;;;;;4999720;28;20233;-78
2023/05/07 05:13:24;;;;;;;10.47;10.17;;;13.40;99.90;;;;;;5000286;28;20296;-77
2023/05/07 05:15:51;;;;;;;10.40;10.10;;;13.40;99.90;;;;;;5000326;28;20265;-77
2023/05/07 05:18:20;;;;;;;10.30;10.00;;;13.50;99.90;;;;;;4999698;28;20231;-77
2023/05/07 05:20:47;;;;;;;10.33;10.03;;;13.60;99.90;;;;;;4999264;28;20248;-78
2023/05/07 05:23:15;;;;;;;10.53;10.23;;;13.60;99.90;;;;;;4991418;28;20245;-77
2023/05/07 05:25:42;;;;;;;10.47;10.17;;;13.80;99.90;;;;;;4988036;28;20237;-77
2023/05/07 05:28:09;;;;;;;10.40;10.10;;;13.90;99.90;;;;;;4980788;28;20274;-78
2023/05/07 05:30:38;;;;;;;10.57;10.27;;;14.00;99.90;;;;;;4988214;28;20259;-78
2023/05/07 05:33:06;;;;;;;10.13;9.83;;;14.10;99.90;;;;;;4992454;28;20259;-77
2023/05/07 05:35:34;;;;;;;10.60;10.30;;;14.20;99.90;;;;;;5001326;28;20221;-78
2023/05/07 05:38:02;;;;;;;10.40;10.10;;;14.30;99.90;;;;;;4994580;28;20237;-79
2023/05/07 05:40:29;;;;;;;10.37;10.07;;;14.50;99.90;;;;;;4998759;28;20264;-78
2023/05/07 05:42:57;;;;;;;10.38;10.07;;;14.50;99.90;;;;;;4998862;28;20288;-77
2023/05/07 05:45:24;;;;;;;10.25;9.95;;;14.50;99.90;;;;;;4990670;28;20245;-78
2023/05/07 05:47:53;;;;;;;10.10;9.80;;;14.60;99.90;;;;;;5000275;28;20232;-77
2023/05/07 05:50:21;;;;;;;10.18;9.88;;;14.60;99.90;;;;;;5000390;28;20260;-77
2023/05/07 05:52:48;;;;;;;10.07;9.77;;;14.60;99.90;;;;;;5000314;28;20252;-79
2023/05/07 05:55:16;;;;;;;10.40;10.10;;;14.60;99.90;;;;;;5000521;28;20262;-77
2023/05/07 05:57:44;;;;;;;10.20;9.90;;;14.50;99.90;;;;;;5000343;28;20327;-77
2023/05/07 06:00:13;;;;;;;10.48;10.18;;;14.50;99.90;;;;;;4999706;28;20240;-78
2023/05/07 06:02:40;;;;;;;10.40;10.10;;;14.70;99.90;;;;;;5000696;28;20240;-77
2023/05/07 06:05:10;;;;;;;10.38;10.07;;;14.70;99.90;;;;;;5000476;28;20239;-78
2023/05/07 06:07:37;;;;;;;10.32;10.02;;;14.80;99.90;;;;;;5001434;28;20236;-79
2023/05/07 06:10:06;;;;;;;10.10;9.80;;;14.90;99.90;;;;;;5002128;28;20242;-78
2023/05/07 06:12:33;;;;;;;10.15;9.85;;;14.90;99.90;;;;;;5003286;28;20243;-78
2023/05/07 06:15:01;;;;;;;9.95;9.65;;;14.90;99.90;;;;;;5004191;28;20288;-78
2023/05/07 06:17:28;;;;;;;10.20;9.90;;;14.90;99.90;;;;;;5007495;28;20235;-78
2023/05/07 06:19:56;;;;;;;10.30;10.00;;;15.00;99.90;;;;;;5010265;28;20245;-78
2023/05/07 06:22:25;;;;;;;10.20;9.90;;;15.10;99.90;;;;;;5010824;28;20237;-78
2023/05/07 06:24:52;;;;;;;10.20;9.90;;;15.20;99.90;;;;;;5010422;28;20232;-79
2023/05/07 06:27:20;;;;;;;10.40;10.10;;;15.30;99.90;;;;;;5010924;28;20245;-78
2023/05/07 06:29:48;;;;;;;10.45;10.15;;;15.30;99.90;;;;;;5010697;28;20247;-78
2023/05/07 06:32:16;;;;;;;10.60;10.30;;;15.30;99.90;;;;;;5003244;28;20229;-78
2023/05/07 06:34:44;;;;;;;10.30;10.00;;;15.30;99.90;;;;;;5011266;28;20220;-78
2023/05/07 06:37:11;;;;;;;10.40;10.10;;;15.20;99.90;;;;;;5010372;28;20289;-78
2023/05/07 06:39:40;;;;;;;10.30;10.00;;;15.30;99.90;;;;;;5005160;28;20336;-78
2023/05/07 06:42:08;;;;;;;10.60;10.30;;;15.30;99.90;;;;;;5006614;28;20221;-78
2023/05/07 06:44:35;;;;;;;10.38;10.07;;;15.40;99.90;;;;;;5008951;28;20223;-77
2023/05/07 06:47:03;;;;;;;10.43;10.13;;;15.40;99.90;;;;;;5011216;28;20268;-78
2023/05/07 06:49:31;;;;;;;10.02;9.73;;;15.40;99.90;;;;;;5009091;28;20233;-77
2023/05/07 06:51:58;;;;;;;10.15;9.85;;;15.50;99.90;;;;;;5009060;28;20251;-79
2023/05/07 06:54:26;;;;;;;10.07;9.77;;;15.60;99.90;;;;;;5011313;28;20221;-79
2023/05/07 06:56:55;;;;;;;10.40;10.10;;;15.80;99.90;;;;;;5003704;28;20235;-78
2023/05/07 06:59:22;;;;;;;10.65;10.35;;;15.90;99.90;;;;;;5001873;28;20323;-77
2023/05/07 07:01:50;;;;;;;10.40;10.10;;;16.10;99.90;;;;;;5002702;28;20240;-79
2023/05/07 07:04:17;;;;;;;10.40;10.10;;;16.10;99.90;;;;;;5003988;28;20284;-78
2023/05/07 07:06:45;;;;;;;10.15;9.85;;;16.10;99.90;;;;;;5004455;28;20324;-78
2023/05/07 07:09:13;;;;;;;10.15;9.85;;;16.20;99.90;;;;;;5004643;28;20336;-79
2023/05/07 07:11:40;;;;;;;10.40;10.10;;;16.40;99.90;;;;;;5003432;28;20272;-78
2023/05/07 07:14:09;;;;;;;10.30;10.00;;;16.40;99.90;;;;;;5003862;28;20297;-78
2023/05/07 07:16:36;;;;;;;10.15;9.85;;;16.60;99.90;;;;;;5003014;28;20233;-78
2023/05/07 07:19:04;;;;;;;10.50;10.20;;;16.70;99.90;;;;;;5001002;28;20364;-77
2023/05/07 07:21:31;;;;;;;10.30;10.00;;;16.80;99.90;;;;;;5001433;28;20335;-78
2023/05/07 07:23:59;;;;;;;10.48;10.18;;;16.90;99.90;;;;;;5001625;28;20233;-79
2023/05/07 07:26:26;;;;;;;10.40;10.10;;;17.10;99.90;;;;;;5001565;28;20247;-77
2023/05/07 07:28:54;;;;;;;10.20;9.90;;;17.30;99.90;;;;;;5001287;28;20236;-77
2023/05/07 07:31:23;;;;;;;10.63;10.32;;;17.50;99.90;;;;;;5003824;28;20247;-79
2023/05/07 07:33:51;;;;;;;10.73;10.43;;;17.50;99.90;;;;;;5004347;28;20243;-79
2023/05/07 07:36:19;;;;;;;10.77;10.48;;;17.40;99.90;;;;;;5003456;28;20233;-78
2023/05/07 07:38:46;;;;;;;10.60;10.30;;;17.40;99.90;;;;;;5009634;28;20341;-85
2023/05/07 07:41:14;;;;;;;10.50;10.20;;;17.50;99.90;;;;;;5006037;28;20264;-82
2023/05/07 07:43:43;;;;;;;10.63;10.32;;;17.70;99.90;;;;;;5005993;28;20267;-82
2023/05/07 07:46:13;;;;;;;10.55;10.25;;;17.90;99.90;;;;;;5005811;28;20229;-83
2023/05/07 07:48:44;;;;;;;10.55;10.25;;;18.00;99.90;;;;;;5006280;28;20233;-82
2023/05/07 07:51:13;;;;;;;10.40;10.10;;;18.10;99.90;;;;;;5006890;28;20296;-84
2023/05/07 07:53:41;;;;;;;10.43;10.13;;;18.20;99.90;;;;;;5006134;28;20287;-83
2023/05/07 07:56:08;;;;;;;10.20;9.90;;;18.30;99.90;;;;;;5004799;28;20300;-78
2023/05/07 07:58:37;;;;;;;10.25;9.95;;;18.50;99.90;;;;;;5002089;28;20319;-78
2023/05/07 08:01:05;;;;;;;10.15;9.85;;;18.50;99.90;;;;;;5002441;28;20339;-78
2023/05/07 08:03:33;;;;;;;9.93;9.63;;;18.50;99.90;;;;;;5002656;28;20236;-80
2023/05/07 08:06:01;;;;;;;9.90;9.60;;;18.60;99.90;;;;;;5003196;28;20257;-80
2023/05/07 08:08:29;;;;;;;9.95;9.65;;;18.70;99.90;;;;;;5003217;28;20232;-78
2023/05/07 08:10:57;;;;;;;10.15;9.85;;;18.60;99.90;;;;;;5002639;28;20237;-77
2023/05/07 08:13:24;;;;;;;10.10;9.80;;;18.70;99.90;;;;;;5000987;28;20221;-76
2023/05/07 08:15:52;;;;;;;10.07;9.77;;;18.80;99.90;;;;;;5002058;28;20243;-76
2023/05/07 08:18:19;;;;;;;9.85;9.55;;;19.00;99.90;;;;;;5003550;28;20236;-76
2023/05/07 08:20:47;;;;;;;10.07;9.77;;;19.10;99.90;;;;;;5002472;28;20239;-77
2023/05/07 08:23:16;;;;;;;10.32;10.02;;;19.20;99.90;;;;;;5002791;28;20244;-77
2023/05/07 08:25:45;;;;;;;10.13;9.82;;;19.20;99.90;;;;;;5001355;28;20229;-77
2023/05/07 08:28:13;;;;;;;10.00;9.70;;;19.20;99.90;;;;;;5000763;28;20229;-77
2023/05/07 08:30:40;;;;;;;9.98;9.68;;;19.30;99.90;;;;;;4999873;28;20317;-77
2023/05/07 08:33:09;;;;;;;10.25;9.95;;;19.50;99.90;;;;;;5001115;28;20291;-77
2023/05/07 08:35:37;;;;;;;9.60;9.30;;;19.50;99.90;;;;;;5003038;28;20233;-79
2023/05/07 08:38:05;;;;;;;9.77;9.48;;;19.70;99.90;;;;;;4991515;28;20300;-78
2023/05/07 08:40:38;;;;;;;9.70;9.40;;;19.90;99.90;;;;;;5002535;28;20272;-79
2023/05/07 08:43:08;;;;;;;9.98;9.68;;;20.20;99.90;;;;;;5002105;28;20248;-78
2023/05/07 08:45:36;;;;;;;9.63;9.32;;;20.40;99.90;;;;;;5002891;28;20288;-79
2023/05/07 08:48:06;;;;;;;9.60;9.30;;;20.50;99.90;;;;;;4990012;28;20233;-79
2023/05/07 08:50:37;;;;;;;9.60;9.30;;;20.50;99.90;;;;;;4984444;28;20226;-79
2023/05/07 08:53:05;;;;;;;9.80;9.50;;;20.60;99.90;;;;;;4987175;28;20229;-77
2023/05/07 08:55:34;;;;;;;9.60;9.30;;;20.40;99.90;;;;;;5000848;28;20240;-77
2023/05/07 08:58:02;;;;;;;9.55;9.25;;;20.50;99.90;;;;;;5002826;28;20320;-79
2023/05/07 09:00:29;;;;;;;9.60;9.30;;;20.60;99.90;;;;;;5003059;28;20225;-80
2023/05/07 09:02:57;;;;;;;9.32;9.02;;;20.60;99.90;;;;;;5002446;28;20252;-79
2023/05/07 09:05:25;;;;;;;9.52;9.23;;;20.60;99.90;;;;;;5001996;28;20292;-78
2023/05/07 09:07:52;;;;;;;9.60;9.30;;;20.80;99.90;;;;;;5002071;28;20237;-79
2023/05/07 09:10:21;;;;;;;9.57;9.27;;;21.00;99.90;;;;;;5003224;28;20224;-79
2023/05/07 09:12:50;;;;;;;9.40;9.10;;;21.00;99.90;;;;;;5003265;28;20232;-80
2023/05/07 09:15:17;;;;;;;9.45;9.15;;;21.00;99.90;;;;;;5002816;28;20319;-79
2023/05/07 09:17:45;;;;;;;9.30;9.00;;;21.10;99.90;;;;;;5002617;28;20319;-78
2023/05/07 09:20:13;;;;;;;9.50;9.20;;;21.30;99.90;;;;;;5002384;28;20241;-79
2023/05/07 09:22:41;;;;;;;9.40;9.10;;;21.40;99.90;;;;;;5002292;28;20239;-80
2023/05/07 09:25:10;;;;;;;9.50;9.20;;;21.60;99.90;;;;;;5004628;28;20240;-79
2023/05/07 09:27:37;;;;;;;9.48;9.18;;;22.00;99.90;;;;;;5003140;28;20230;-79
2023/05/07 09:30:08;;;;;;;9.27;8.98;;;22.40;99.90;;;;;;4986899;28;20237;-79
2023/05/07 09:32:37;;;;;;;9.68;9.38;;;22.60;99.90;;;;;;4986481;28;20252;-79
2023/05/07 09:35:06;;;;;;;9.38;9.07;;;22.80;99.90;;;;;;4988869;28;20265;-80
2023/05/07 09:37:34;;;;;;;9.27;8.98;;;22.90;99.90;;;;;;4985456;28;20321;-79
2023/05/07 09:40:02;;;;;;;9.50;9.20;;;23.20;99.90;;;;;;4984530;28;20242;-79
2023/05/07 09:42:30;;;;;;;9.30;9.00;;;23.20;99.90;;;;;;4984711;28;20230;-80
2023/05/07 09:45:01;;;;;;;9.40;9.10;;;23.30;99.90;;;;;;4983348;28;20297;-79
2023/05/07 09:47:33;;;;;;;9.43;9.13;;;23.10;99.90;;;;;;4984493;28;20726;-79
2023/05/07 09:50:06;;;;;;;9.40;9.10;;;23.30;99.90;;;;;;4983454;28;20248;-79
2023/05/07 09:52:35;;;;;;;9.23;8.93;;;23.30;99.90;;;;;;4983756;28;20225;-80
2023/05/07 09:55:05;;;;;;;9.30;9.00;;;23.20;99.90;;;;;;4985300;28;20256;-80
2023/05/07 09:57:35;;;;;;;9.50;9.20;;;23.40;99.90;;;;;;4985289;28;20323;-79
2023/05/07 10:00:05;;;;;;;9.50;9.20;;;23.70;99.90;;;;;;4983707;28;20234;-80
2023/05/07 10:02:37;;;;;;;9.32;9.02;;;23.80;99.90;;;;;;4983884;28;20230;-80
2023/05/07 10:05:06;;;;;;;9.48;9.18;;;24.10;99.90;;;;;;4985414;28;20243;-80
2023/05/07 10:07:34;;;;;;;9.50;9.20;;;24.30;99.90;;;;;;4984721;28;20229;-80
2023/05/07 10:10:03;;;;;;;9.30;9.00;;;24.40;99.90;;;;;;4984370;28;20240;-80
2023/05/07 10:12:37;;;;;;;10.02;9.73;;;24.40;99.90;;;;;;4985005;28;21031;-80
2023/05/07 10:15:07;;;;;;;9.80;9.50;;;24.40;99.90;;;;;;4985199;28;20236;-80
2023/05/07 10:17:39;;;;;;;9.95;9.65;;;24.70;99.90;;;;;;4985124;28;20269;-80
2023/05/07 10:20:08;;;;;;;9.82;9.52;;;24.70;99.90;;;;;;4986142;28;20237;-82
2023/05/07 10:22:44;;;;;;;9.95;9.65;;;25.00;99.90;;;;;;4984775;28;20288;-82
2023/05/07 10:25:22;;;;;;;9.90;9.60;;;25.10;99.90;;;;;;4982781;28;20237;-81
2023/05/07 10:27:52;;;;;;;9.80;9.50;;;25.20;99.90;;;;;;4984497;28;20229;-83
2023/05/07 10:30:40;;;;;;;9.90;9.60;;;25.30;99.90;;;;;;4983906;28;20333;-84
2023/05/07 10:33:18;;;;;;;9.63;9.32;;;25.40;99.90;;;;;;4985972;28;20232;-84
2023/05/07 10:35:48;;;;;;;9.80;9.50;;;25.20;99.90;;;;;;4988404;28;20297;-86
2023/05/07 10:38:17;;;;;;;9.70;9.40;;;24.90;99.90;;;;;;5004317;28;20237;-85
2023/05/07 10:40:46;;;;;;;9.60;9.30;;;24.90;99.90;;;;;;5002229;28;20232;-86
2023/05/07 10:43:14;;;;;;;9.98;9.68;;;24.40;99.90;;;;;;5000753;28;20264;-82
2023/05/07 10:45:44;;;;;;;10.00;9.70;;;24.00;99.90;;;;;;5008481;28;20324;-82
2023/05/07 10:48:17;;;;;;;9.77;9.48;;;23.90;99.90;;;;;;5008726;28;20313;-81
2023/05/07 10:50:46;;;;;;;9.75;9.45;;;24.20;99.90;;;;;;5007118;28;20232;-81
2023/05/07 10:53:28;;;;;;;9.90;9.60;;;24.20;99.90;;;;;;5006224;28;20229;-82
2023/05/07 10:56:30;;;;;;;10.00;9.70;;;24.30;99.90;;;;;;5006193;28;20315;-81
2023/05/07 10:59:31;;;;;;;9.85;9.55;;;24.20;99.90;;;;;;5005102;28;20243;-82
2023/05/07 11:02:02;;;;;;;9.77;9.48;;;24.70;99.90;;;;;;5006817;28;20232;-85
2023/05/07 11:04:41;;;;;;;9.60;9.30;;;25.00;99.90;;;;;;5007523;28;20231;-84
2023/05/07 11:07:31;;;;;;;9.80;9.50;;;25.20;99.90;;;;;;5007880;28;20229;-84
2023/05/07 11:10:05;;;;;;;9.90;9.60;;;25.20;99.90;;;;;;5006393;28;20261;-83
2023/05/07 11:13:10;;;;;;;9.80;9.50;;;25.20;99.90;;;;;;5005412;28;20284;-83
2023/05/07 11:15:44;;;;;;;9.80;9.50;;;25.00;99.90;;;;;;4995081;28;20233;-84
2023/05/07 11:18:14;;;;;;;9.60;9.30;;;24.60;99.90;;;;;;5004597;28;20233;-82
2023/05/07 11:20:58;;;;;;;9.90;9.60;;;24.20;99.90;;;;;;5010461;28;20236;-82
2023/05/07 11:24:08;;;;;;;9.95;9.65;;;24.20;99.90;;;;;;5009224;28;20237;-81
2023/05/07 11:26:51;;;;;;;10.00;9.70;;;24.40;99.90;;;;;;5008115;28;20255;-81
2023/05/07 11:29:21;;;;;;;9.63;9.32;;;24.40;99.90;;;;;;5007882;28;20241;-82
2023/05/07 11:31:53;;;;;;;9.60;9.30;;;24.40;99.90;;;;;;5010398;28;20248;-83
2023/05/07 11:34:26;;;;;;;9.77;9.48;;;24.10;99.90;;;;;;5007565;28;20231;-82
2023/05/07 11:36:55;;;;;;;9.90;9.60;;;23.90;99.90;;;;;;5007016;28;20216;-82
2023/05/07 11:39:31;;;;;;;9.70;9.40;;;23.80;99.90;;;;;;5008264;28;20261;-82
2023/05/07 11:42:02;;;;;;;9.80;9.50;;;23.80;99.90;;;;;;5007627;28;20240;-82
2023/05/07 11:44:48;;;;;;;9.75;9.45;;;24.00;99.90;;;;;;5003867;28;20256;-84
2023/05/07 11:47:20;;;;;;;9.70;9.40;;;24.20;99.90;;;;;;5004206;28;20225;-83
2023/05/07 11:49:49;;;;;;;9.70;9.40;;;24.40;99.90;;;;;;5008106;28;20244;-84
2023/05/07 11:52:25;;;;;;;9.60;9.30;;;24.40;99.90;;;;;;5007691;28;20311;-83
2023/05/07 11:54:57;;;;;;;9.70;9.40;;;24.30;99.90;;;;;;5007484;28;20220;-83
2023/05/07 11:57:25;;;;;;;9.88;9.57;;;24.20;99.90;;;;;;5006883;28;20279;-83
2023/05/07 11:59:54;;;;;;;10.00;9.70;;;23.90;99.90;;;;;;5003264;28;20249;-83
2023/05/07 12:02:24;;;;;;;10.00;9.70;;;24.00;99.90;;;;;;4995282;28;20238;-82
2023/05/07 12:04:53;;;;;;;10.05;9.75;;;24.20;99.90;;;;;;4998292;28;20233;-83
2023/05/07 12:07:25;;;;;;;10.00;9.70;;;24.50;99.90;;;;;;5005995;28;20275;-83
2023/05/07 12:09:55;;;;;;;9.90;9.60;;;25.10;99.90;;;;;;5005160;28;20288;-83
2023/05/07 12:12:24;;;;;;;10.07;9.77;;;25.40;99.90;;;;;;5005368;28;20251;-83
2023/05/07 12:14:52;;;;;;;10.13;9.82;;;25.40;99.90;;;;;;5006331;28;20288;-83
2023/05/07 12:17:21;;;;;;;10.02;9.73;;;25.50;99.90;;;;;;5005606;28;20288;-83
2023/05/07 12:19:49;;;;;;;10.02;9.73;;;25.60;99.90;;;;;;5005347;28;20263;-80
2023/05/07 12:22:17;;;;;;;10.00;9.70;;;25.90;99.90;;;;;;5005941;28;20308;-83
2023/05/07 12:24:50;;;;;;;10.10;9.80;;;26.10;99.90;;;;;;5006072;28;20229;-82
2023/05/07 12:27:18;;;;;;;10.40;10.10;;;26.00;99.90;;;;;;5007758;28;20229;-83
2023/05/07 12:29:48;;;;;;;10.23;9.93;;;25.70;99.90;;;;;;5005442;28;20237;-81
2023/05/07 12:32:17;;;;;;;9.98;9.68;;;25.70;99.90;;;;;;5004862;28;20264;-80
2023/05/07 12:34:45;;;;;;;10.20;9.90;;;25.70;99.90;;;;;;5004931;28;20291;-83
2023/05/07 12:37:18;;;;;;;9.82;9.52;;;25.50;99.90;;;;;;5005858;28;20232;-82
2023/05/07 12:40:06;;;;;;;10.20;9.90;;;25.60;99.90;;;;;;5005298;28;20221;-82
2023/05/07 12:42:42;;;;;;;10.20;9.90;;;25.80;99.90;;;;;;5005647;28;20248;-83
2023/05/07 12:45:11;;;;;;;10.20;9.90;;;25.80;99.90;;;;;;5005357;28;20224;-82
2023/05/07 12:47:51;;;;;;;10.23;9.93;;;25.50;99.90;;;;;;5005265;28;20237;-83
2023/05/07 12:50:20;;;;;;;10.23;9.93;;;25.50;99.90;;;;;;5005028;28;20263;-85
2023/05/07 12:52:57;;;;;;;10.30;10.00;;;25.90;99.90;;;;;;5004955;28;20244;-86
2023/05/07 12:55:35;;;;;;;10.55;10.25;;;26.20;99.90;;;;;;5005495;28;20237;-86
2023/05/07 12:58:05;;;;;;;10.52;10.23;;;26.10;99.90;;;;;;5005199;28;20300;-84
2023/05/07 13:00:43;;;;;;;10.60;10.30;;;25.90;99.90;;;;;;5008816;28;20237;-84
2023/05/07 13:03:22;;;;;;;10.52;10.23;;;25.40;99.90;;;;;;5007842;28;20272;-82
2023/05/07 13:05:50;;;;;;;10.55;10.25;;;25.10;99.90;;;;;;5005153;28;20275;-82
2023/05/07 13:08:29;;;;;;;10.30;10.00;;;25.00;99.90;;;;;;5006088;28;20209;-82
2023/05/07 13:11:03;;;;;;;10.50;10.20;;;24.80;99.90;;;;;;5007347;28;20306;-82
2023/05/07 13:13:32;;;;;;;10.38;10.07;;;24.80;99.90;;;;;;5006063;28;20249;-83
2023/05/07 13:16:03;;;;;;;10.55;10.25;;;24.80;99.90;;;;;;5005620;28;20240;-83
2023/05/07 13:18:33;;;;;;;10.50;10.20;;;24.70;99.90;;;;;;5006535;28;20224;-82
2023/05/07 13:21:05;;;;;;;10.70;10.40;;;24.40;99.90;;;;;;5007274;28;20296;-83
2023/05/07 13:23:33;;;;;;;10.50;10.20;;;24.40;99.90;;;;;;5006923;28;20260;-82
2023/05/07 13:26:08;;;;;;;10.60;10.30;;;24.20;99.90;;;;;;5009120;28;20252;-82
2023/05/07 13:28:36;;;;;;;10.60;10.30;;;24.20;99.90;;;;;;5010423;28;20220;-83
2023/05/07 13:31:03;;;;;;;10.63;10.32;;;24.30;99.90;;;;;;5011213;28;20260;-83
2023/05/07 13:33:31;;;;;;;10.60;10.30;;;24.30;99.90;;;;;;5009141;28;20236;-85
2023/05/07 13:36:03;;;;;;;10.70;10.40;;;24.20;99.90;;;;;;5008032;28;20256;-84
2023/05/07 13:38:31;;;;;;;10.50;10.20;;;24.00;99.90;;;;;;5007702;28;20337;-84
2023/05/07 13:41:00;;;;;;;10.68;10.38;;;23.80;99.90;;;;;;5009702;28;20252;-85
2023/05/07 13:43:31;;;;;;;10.43;10.13;;;23.90;99.90;;;;;;5008088;28;20236;-84
2023/05/07 13:48:46;;;;;;;10.55;10.25;;;24.00;99.90;;;;;;5006575;28;20205;-83
2023/05/07 13:51:18;;;;;;;10.68;10.38;;;24.10;99.90;;;;;;5012941;28;20237;-83
2023/05/07 13:53:46;;;;;;;10.60;10.30;;;24.40;99.90;;;;;;5010898;28;20236;-83
2023/05/07 13:56:15;;;;;;;10.60;10.30;;;24.50;99.90;;;;;;5009289;28;20225;-83
2023/05/07 13:58:45;;;;;;;10.80;10.50;;;24.60;99.90;;;;;;5008768;28;20279;-84
2023/05/07 14:01:14;;;;;;;10.73;10.43;;;24.40;99.90;;;;;;5007304;28;20241;-83
2023/05/07 14:03:44;;;;;;;10.70;10.40;;;24.30;99.90;;;;;;4993257;28;20276;-83
2023/05/07 14:06:13;;;;;;;10.80;10.50;;;24.10;99.90;;;;;;5009322;28;20260;-83
2023/05/07 14:08:43;;;;;;;10.73;10.43;;;24.10;99.90;;;;;;5009679;28;20228;-83
2023/05/07 14:11:13;;;;;;;10.77;10.48;;;24.30;99.90;;;;;;5010496;28;20240;-84
2023/05/07 14:13:42;;;;;;;10.63;10.32;;;24.70;99.90;;;;;;5011417;28;20260;-83
2023/05/07 14:16:17;;;;;;;10.70;10.40;;;25.10;99.90;;;;;;5012737;28;20236;-83
2023/05/07 14:18:46;;;;;;;10.55;10.25;;;25.00;99.90;;;;;;5012736;28;20303;-83
2023/05/07 14:21:14;;;;;;;10.50;10.20;;;24.70;99.90;;;;;;5012310;28;20233;-83
2023/05/07 14:23:41;;;;;;;10.45;10.15;;;24.60;99.90;;;;;;5013968;28;20256;-83
2023/05/07 14:26:09;;;;;;;10.40;10.10;;;24.60;99.90;;;;;;5012735;28;20235;-83
2023/05/07 14:28:39;;;;;;;10.63;10.32;;;24.60;99.90;;;;;;4998007;28;20228;-83
2023/05/07 14:31:08;;;;;;;10.52;10.23;;;24.50;99.90;;;;;;5015344;28;20271;-84
2023/05/07 14:33:44;;;;;;;10.50;10.20;;;24.60;99.90;;;;;;5017612;28;20227;-84
2023/05/07 14:36:15;;;;;;;10.50;10.20;;;24.60;99.90;;;;;;5006692;28;20292;-83
2023/05/07 14:38:44;;;;;;;10.55;10.25;;;24.60;99.90;;;;;;5003618;28;20222;-83
2023/05/07 14:41:14;;;;;;;10.20;9.90;;;24.70;99.90;;;;;;5015206;28;20233;-83
2023/05/07 14:43:49;;;;;;;10.40;10.10;;;24.70;99.90;;;;;;5015708;28;20240;-85
2023/05/07 14:46:25;;;;;;;10.05;9.75;;;24.70;99.90;;;;;;5021080;28;20303;-83
2023/05/07 14:48:54;;;;;;;10.15;9.85;;;24.70;99.90;;;;;;5021083;28;20229;-83
2023/05/07 14:51:23;;;;;;;10.27;9.98;;;24.70;99.90;;;;;;5021593;28;20233;-84
2023/05/07 14:53:52;;;;;;;10.00;9.70;;;24.80;99.90;;;;;;5020674;28;20285;-83
2023/05/07 14:56:26;;;;;;;10.10;9.80;;;25.00;99.90;;;;;;5020610;28;20236;-83
2023/05/07 14:58:59;;;;;;;9.88;9.57;;;24.80;99.90;;;;;;5020025;28;20238;-82
2023/05/07 15:01:29;;;;;;;10.30;10.00;;;24.70;99.90;;;;;;5018121;28;20233;-82
2023/05/07 15:04:09;;;;;;;10.15;9.85;;;24.50;99.90;;;;;;5014875;28;20218;-83
2023/05/07 15:06:36;;;;;;;10.05;9.75;;;24.40;99.90;;;;;;5012270;28;20296;-83
2023/05/07 15:09:04;;;;;;;10.30;10.00;;;24.20;99.90;;;;;;4996745;28;20222;-83
2023/05/07 15:11:33;;;;;;;10.07;9.77;;;24.00;99.90;;;;;;4990497;28;20374;-83
2023/05/07 15:14:05;;;;;;;10.10;9.80;;;23.90;99.90;;;;;;4991282;28;20687;-83
2023/05/07 15:16:33;;;;;;;10.20;9.90;;;24.00;99.90;;;;;;4990284;28;20281;-83
2023/05/07 15:19:05;;;;;;;10.32;10.02;;;24.00;99.90;;;;;;4989892;28;20241;-83
2023/05/07 15:21:34;;;;;;;10.00;9.70;;;24.00;99.90;;;;;;4990462;28;20340;-82
2023/05/07 15:24:02;;;;;;;9.90;9.60;;;23.70;99.90;;;;;;4987704;28;20243;-82
2023/05/07 15:26:33;;;;;;;9.75;9.45;;;23.60;99.90;;;;;;4987322;28;20269;-83
2023/05/07 15:29:10;;;;;;;10.00;9.70;;;23.60;99.90;;;;;;5004070;28;20243;-81
2023/05/07 15:31:38;;;;;;;10.00;9.70;;;23.60;99.90;;;;;;5006581;28;20236;-81
2023/05/07 15:34:07;;;;;;;10.18;9.88;;;23.60;99.90;;;;;;5006915;28;20320;-82
2023/05/07 15:39:17;;;;;;;9.93;9.63;;;23.40;99.90;;;;;;5040965;28;20275;-84
2023/05/07 15:45:10;;;;;;;9.95;9.65;;;23.00;99.90;;;;;;5010237;28;20263;-83
2023/05/07 15:47:38;;;;;;;9.77;9.48;;;22.90;99.90;;;;;;5047027;28;20254;-83
2023/05/07 15:50:20;;;;;;;9.95;9.65;;;22.90;99.90;;;;;;5048137;28;20231;-84
2023/05/07 15:52:48;;;;;;;9.85;9.55;;;22.70;99.90;;;;;;5040099;28;20253;-84
2023/05/07 15:55:17;;;;;;;10.00;9.70;;;22.70;99.90;;;;;;5044812;28;20254;-84
2023/05/07 15:57:47;;;;;;;9.95;9.65;;;22.60;99.90;;;;;;5045510;28;20243;-83
2023/05/07 16:00:27;;;;;;;9.80;9.50;;;22.50;99.90;;;;;;5045542;28;20251;-83
2023/05/07 16:02:55;;;;;;;9.60;9.30;;;22.50;99.90;;;;;;5044909;28;20279;-84
2023/05/07 16:08:27;;;;;;;9.80;9.50;;;22.30;99.90;;;;;;5041630;28;20242;-83
2023/05/07 16:10:56;;;;;;;9.63;9.32;;;22.30;99.90;;;;;;5043476;28;20297;-84
2023/05/07 16:13:29;;;;;;;9.70;9.40;;;22.20;99.90;;;;;;5043904;28;20223;-83
2023/05/07 16:16:10;;;;;;;9.88;9.57;;;22.20;99.90;;;;;;5043834;28;20224;-85
2023/05/07 16:18:42;;;;;;;9.73;9.43;;;22.10;99.90;;;;;;5042957;28;20239;-85
2023/05/07 16:21:27;;;;;;;9.43;9.13;;;22.00;99.90;;;;;;5043187;28;20220;-85
2023/05/07 16:24:01;;;;;;;9.38;9.07;;;21.90;99.90;;;;;;5044175;28;20281;-85
2023/05/07 16:29:15;;;;;;;9.35;9.05;;;22.00;99.90;;;;;;5043044;28;20237;-84
2023/05/07 16:31:46;;;;;;;9.45;9.15;;;22.00;99.90;;;;;;5043442;28;20251;-84
2023/05/07 16:34:16;;;;;;;9.43;9.13;;;21.90;99.90;;;;;;5037218;28;20227;-84